sensor_id;sensor_type;location;lat;lon;timestamp;temperature;humidity
4054;DHT22;2042;47.956;9.222;2023-03-12T00:02:16;-1.70;51.00
4054;DHT22;2042;47.956;9.222;2023-03-12T00:04:42;-1.80;50.50
4054;DHT22;2042;47.956;9.222;2023-03-12T00:07:07;-1.80;50.90
4054;DHT22;2042;47.956;9.222;2023-03-12T00:09:35;-1.80;51.10
4054;DHT22;2042;47.956;9.222;2023-03-12T00:12:01;-1.70;51.80
4054;DHT22;2042;47.956;9.222;2023-03-12T00:14:27;-1.70;52.70
4054;DHT22;2042;47.956;9.222;2023-03-12T00:16:53;-1.70;54.00
4054;DHT22;2042;47.956;9.222;2023-03-12T00:19:20;-1.70;56.40
4054;DHT22;2042;47.956;9.222;2023-03-12T00:46:21;-1.10;61.20
4054;DHT22;2042;47.956;9.222;2023-03-12T00:48:46;-1.10;60.30
4054;DHT22;2042;47.956;9.222;2023-03-12T00:51:12;-1.10;59.90
4054;DHT22;2042;47.956;9.222;2023-03-12T00:53:38;-1.10;60.00
4054;DHT22;2042;47.956;9.222;2023-03-12T00:56:05;-1.00;60.10
4054;DHT22;2042;47.956;9.222;2023-03-12T00:58:31;-1.10;60.10
4054;DHT22;2042;47.956;9.222;2023-03-12T01:00:57;-1.00;60.20
4054;DHT22;2042;47.956;9.222;2023-03-12T01:03:22;-1.00;60.30
4054;DHT22;2042;47.956;9.222;2023-03-12T01:05:48;-1.00;60.60
4054;DHT22;2042;47.956;9.222;2023-03-12T01:08:19;-1.00;60.60
4054;DHT22;2042;47.956;9.222;2023-03-12T01:10:45;-1.00;60.80
4054;DHT22;2042;47.956;9.222;2023-03-12T01:13:10;-1.00;61.10
4054;DHT22;2042;47.956;9.222;2023-03-12T01:15:36;-1.00;60.80
4054;DHT22;2042;47.956;9.222;2023-03-12T01:18:02;-1.00;61.20
4054;DHT22;2042;47.956;9.222;2023-03-12T01:20:28;-0.90;61.60
4054;DHT22;2042;47.956;9.222;2023-03-12T01:22:54;-0.90;61.90
4054;DHT22;2042;47.956;9.222;2023-03-12T01:25:19;-0.80;62.40
4054;DHT22;2042;47.956;9.222;2023-03-12T01:27:45;-0.70;63.10
4054;DHT22;2042;47.956;9.222;2023-03-12T01:30:12;-0.60;63.70
4054;DHT22;2042;47.956;9.222;2023-03-12T01:32:37;-0.50;63.90
4054;DHT22;2042;47.956;9.222;2023-03-12T01:35:05;-0.50;64.00
4054;DHT22;2042;47.956;9.222;2023-03-12T01:37:31;-0.40;64.10
4054;DHT22;2042;47.956;9.222;2023-03-12T01:39:57;-0.30;64.80
4054;DHT22;2042;47.956;9.222;2023-03-12T01:42:23;-0.30;65.00
4054;DHT22;2042;47.956;9.222;2023-03-12T01:47:14;-0.20;65.90
4054;DHT22;2042;47.956;9.222;2023-03-12T01:49:40;-0.20;65.60
4054;DHT22;2042;47.956;9.222;2023-03-12T01:52:08;-0.10;66.00
4054;DHT22;2042;47.956;9.222;2023-03-12T01:54:42;-0.10;66.00
4054;DHT22;2042;47.956;9.222;2023-03-12T01:57:12;0.00;66.30
4054;DHT22;2042;47.956;9.222;2023-03-12T01:59:51;0.10;66.90
4054;DHT22;2042;47.956;9.222;2023-03-12T02:02:18;0.10;67.20
4054;DHT22;2042;47.956;9.222;2023-03-12T02:04:55;0.20;67.40
4054;DHT22;2042;47.956;9.222;2023-03-12T02:07:22;0.30;67.90
4054;DHT22;2042;47.956;9.222;2023-03-12T02:09:48;0.30;68.30
4054;DHT22;2042;47.956;9.222;2023-03-12T02:12:15;0.40;68.60
4054;DHT22;2042;47.956;9.222;2023-03-12T02:14:41;0.40;69.50
4054;DHT22;2042;47.956;9.222;2023-03-12T02:17:07;0.50;69.30
4054;DHT22;2042;47.956;9.222;2023-03-12T02:22:05;0.50;70.00
4054;DHT22;2042;47.956;9.222;2023-03-12T02:24:42;0.60;70.50
4054;DHT22;2042;47.956;9.222;2023-03-12T02:27:10;0.60;70.90
4054;DHT22;2042;47.956;9.222;2023-03-12T02:29:38;0.60;71.30
4054;DHT22;2042;47.956;9.222;2023-03-12T02:32:06;0.70;71.50
4054;DHT22;2042;47.956;9.222;2023-03-12T02:34:32;0.70;72.00
4054;DHT22;2042;47.956;9.222;2023-03-12T02:36:59;0.70;72.40
4054;DHT22;2042;47.956;9.222;2023-03-12T02:39:24;0.70;72.50
4054;DHT22;2042;47.956;9.222;2023-03-12T02:41:53;0.70;73.10
4054;DHT22;2042;47.956;9.222;2023-03-12T04:05:17;1.30;73.10
4054;DHT22;2042;47.956;9.222;2023-03-12T04:07:43;1.40;73.60
4054;DHT22;2042;47.956;9.222;2023-03-12T04:10:10;1.40;73.00
4054;DHT22;2042;47.956;9.222;2023-03-12T04:12:35;1.40;74.00
4054;DHT22;2042;47.956;9.222;2023-03-12T04:15:01;1.50;74.80
4054;DHT22;2042;47.956;9.222;2023-03-12T04:19:53;1.40;74.40
4054;DHT22;2042;47.956;9.222;2023-03-12T04:22:19;1.50;74.30
4054;DHT22;2042;47.956;9.222;2023-03-12T04:24:44;1.50;73.90
4054;DHT22;2042;47.956;9.222;2023-03-12T04:27:10;1.50;73.80
4054;DHT22;2042;47.956;9.222;2023-03-12T04:29:36;1.60;74.00
4054;DHT22;2042;47.956;9.222;2023-03-12T04:32:04;1.60;73.70
4054;DHT22;2042;47.956;9.222;2023-03-12T04:34:30;1.60;73.70
4054;DHT22;2042;47.956;9.222;2023-03-12T04:36:55;1.70;73.80
4054;DHT22;2042;47.956;9.222;2023-03-12T04:39:21;1.70;73.60
4054;DHT22;2042;47.956;9.222;2023-03-12T04:41:47;1.80;73.80
4054;DHT22;2042;47.956;9.222;2023-03-12T04:44:13;1.80;74.30
4054;DHT22;2042;47.956;9.222;2023-03-12T04:46:39;1.80;74.50
4054;DHT22;2042;47.956;9.222;2023-03-12T04:49:05;1.80;74.70
4054;DHT22;2042;47.956;9.222;2023-03-12T04:51:31;1.80;74.70
4054;DHT22;2042;47.956;9.222;2023-03-12T04:53:58;1.80;74.90
4054;DHT22;2042;47.956;9.222;2023-03-12T04:56:23;1.80;74.70
4054;DHT22;2042;47.956;9.222;2023-03-12T04:58:50;1.80;74.60
4054;DHT22;2042;47.956;9.222;2023-03-12T05:01:30;1.80;75.20
4054;DHT22;2042;47.956;9.222;2023-03-12T05:03:56;1.80;75.40
4054;DHT22;2042;47.956;9.222;2023-03-12T05:06:23;1.80;75.50
4054;DHT22;2042;47.956;9.222;2023-03-12T05:08:48;1.80;75.70
4054;DHT22;2042;47.956;9.222;2023-03-12T05:11:15;1.80;75.80
4054;DHT22;2042;47.956;9.222;2023-03-12T05:13:41;1.80;76.10
4054;DHT22;2042;47.956;9.222;2023-03-12T05:16:08;1.90;76.20
4054;DHT22;2042;47.956;9.222;2023-03-12T05:18:34;1.80;76.40
4054;DHT22;2042;47.956;9.222;2023-03-12T05:21:08;1.80;76.40
4054;DHT22;2042;47.956;9.222;2023-03-12T05:28:30;1.80;76.30
4054;DHT22;2042;47.956;9.222;2023-03-12T05:30:58;1.90;77.10
4054;DHT22;2042;47.956;9.222;2023-03-12T06:12:57;1.90;79.40
4054;DHT22;2042;47.956;9.222;2023-03-12T06:15:22;1.90;75.20
4054;DHT22;2042;47.956;9.222;2023-03-12T06:17:48;1.90;68.60
4054;DHT22;2042;47.956;9.222;2023-03-12T06:20:14;2.00;67.10
4054;DHT22;2042;47.956;9.222;2023-03-12T06:22:39;2.00;67.10
4054;DHT22;2042;47.956;9.222;2023-03-12T06:25:05;2.00;67.20
4054;DHT22;2042;47.956;9.222;2023-03-12T06:27:31;2.00;67.00
4054;DHT22;2042;47.956;9.222;2023-03-12T06:29:57;2.10;67.00
4054;DHT22;2042;47.956;9.222;2023-03-12T06:32:23;2.10;68.30
4054;DHT22;2042;47.956;9.222;2023-03-12T06:34:48;2.10;68.40
4054;DHT22;2042;47.956;9.222;2023-03-12T06:37:14;2.20;68.70
4054;DHT22;2042;47.956;9.222;2023-03-12T06:39:40;2.20;68.70
4054;DHT22;2042;47.956;9.222;2023-03-12T06:42:06;2.20;68.80
4054;DHT22;2042;47.956;9.222;2023-03-12T06:44:32;2.20;68.80
4054;DHT22;2042;47.956;9.222;2023-03-12T06:46:58;2.20;69.00
4054;DHT22;2042;47.956;9.222;2023-03-12T06:49:23;2.20;69.30
4054;DHT22;2042;47.956;9.222;2023-03-12T06:51:50;2.20;69.50
4054;DHT22;2042;47.956;9.222;2023-03-12T06:54:15;2.30;69.80
4054;DHT22;2042;47.956;9.222;2023-03-12T06:56:41;2.40;70.10
4054;DHT22;2042;47.956;9.222;2023-03-12T06:59:07;2.60;70.90
4054;DHT22;2042;47.956;9.222;2023-03-12T07:01:32;2.70;71.60
4054;DHT22;2042;47.956;9.222;2023-03-12T07:03:58;2.90;72.50
4054;DHT22;2042;47.956;9.222;2023-03-12T07:06:24;3.10;73.20
4054;DHT22;2042;47.956;9.222;2023-03-12T07:08:50;3.30;73.70
4054;DHT22;2042;47.956;9.222;2023-03-12T07:11:16;3.30;74.00
4054;DHT22;2042;47.956;9.222;2023-03-12T07:13:44;3.40;75.20
4054;DHT22;2042;47.956;9.222;2023-03-12T07:16:11;3.40;76.40
4054;DHT22;2042;47.956;9.222;2023-03-12T07:18:37;3.50;77.30
4054;DHT22;2042;47.956;9.222;2023-03-12T07:21:03;3.50;77.90
4054;DHT22;2042;47.956;9.222;2023-03-12T07:23:28;3.50;78.70
4054;DHT22;2042;47.956;9.222;2023-03-12T07:30:48;3.60;80.00
4054;DHT22;2042;47.956;9.222;2023-03-12T07:33:18;3.70;80.00
4054;DHT22;2042;47.956;9.222;2023-03-12T07:35:45;3.70;79.30
4054;DHT22;2042;47.956;9.222;2023-03-12T07:38:11;3.60;78.30
4054;DHT22;2042;47.956;9.222;2023-03-12T07:40:37;3.60;78.00
4054;DHT22;2042;47.956;9.222;2023-03-12T07:43:03;3.70;78.50
4054;DHT22;2042;47.956;9.222;2023-03-12T07:45:31;3.60;78.50
4054;DHT22;2042;47.956;9.222;2023-03-12T07:47:56;3.70;78.10
4054;DHT22;2042;47.956;9.222;2023-03-12T07:50:22;3.80;77.50
4054;DHT22;2042;47.956;9.222;2023-03-12T07:52:48;3.90;78.10
4054;DHT22;2042;47.956;9.222;2023-03-12T07:55:13;4.00;79.40
4054;DHT22;2042;47.956;9.222;2023-03-12T07:57:39;4.10;79.20
4054;DHT22;2042;47.956;9.222;2023-03-12T08:00:05;4.00;78.00
4054;DHT22;2042;47.956;9.222;2023-03-12T08:02:33;3.90;77.00
4054;DHT22;2042;47.956;9.222;2023-03-12T08:04:59;4.00;76.70
4054;DHT22;2042;47.956;9.222;2023-03-12T08:07:24;4.20;76.60
4054;DHT22;2042;47.956;9.222;2023-03-12T08:09:59;4.40;77.00
4054;DHT22;2042;47.956;9.222;2023-03-12T08:12:25;4.50;77.00
4054;DHT22;2042;47.956;9.222;2023-03-12T08:14:50;4.70;77.60
4054;DHT22;2042;47.956;9.222;2023-03-12T08:17:16;4.70;77.80
4054;DHT22;2042;47.956;9.222;2023-03-12T08:19:42;4.80;78.00
4054;DHT22;2042;47.956;9.222;2023-03-12T08:22:07;4.80;78.10
4054;DHT22;2042;47.956;9.222;2023-03-12T08:24:33;5.00;78.00
4054;DHT22;2042;47.956;9.222;2023-03-12T08:27:00;5.10;78.10
4054;DHT22;2042;47.956;9.222;2023-03-12T08:29:25;5.30;78.30
4054;DHT22;2042;47.956;9.222;2023-03-12T08:31:51;5.40;78.70
4054;DHT22;2042;47.956;9.222;2023-03-12T08:34:17;5.50;79.00
4054;DHT22;2042;47.956;9.222;2023-03-12T08:36:42;5.50;79.20
4054;DHT22;2042;47.956;9.222;2023-03-12T08:39:08;5.40;78.60
4054;DHT22;2042;47.956;9.222;2023-03-12T08:41:33;5.30;77.50
4054;DHT22;2042;47.956;9.222;2023-03-12T08:43:59;5.10;76.30
4054;DHT22;2042;47.956;9.222;2023-03-12T08:46:25;5.10;76.90
4054;DHT22;2042;47.956;9.222;2023-03-12T08:48:50;5.30;77.90
4054;DHT22;2042;47.956;9.222;2023-03-12T08:51:16;5.40;77.30
4054;DHT22;2042;47.956;9.222;2023-03-12T08:53:42;5.40;77.30
4054;DHT22;2042;47.956;9.222;2023-03-12T08:56:07;5.50;77.70
4054;DHT22;2042;47.956;9.222;2023-03-12T08:58:33;5.60;77.50
4054;DHT22;2042;47.956;9.222;2023-03-12T09:00:59;5.70;77.70
4054;DHT22;2042;47.956;9.222;2023-03-12T09:03:25;6.10;80.70
4054;DHT22;2042;47.956;9.222;2023-03-12T09:06:04;6.50;81.30
4054;DHT22;2042;47.956;9.222;2023-03-12T09:08:30;6.70;81.00
4054;DHT22;2042;47.956;9.222;2023-03-12T09:10:58;7.10;83.20
4054;DHT22;2042;47.956;9.222;2023-03-12T09:13:25;7.30;78.10
4054;DHT22;2042;47.956;9.222;2023-03-12T09:15:50;7.40;73.60
4054;DHT22;2042;47.956;9.222;2023-03-12T09:18:16;7.60;73.80
4054;DHT22;2042;47.956;9.222;2023-03-12T09:32:58;9.20;1.00
4054;DHT22;2042;47.956;9.222;2023-03-12T09:35:23;9.80;1.00
4054;DHT22;2042;47.956;9.222;2023-03-12T09:37:49;9.90;1.00
4054;DHT22;2042;47.956;9.222;2023-03-12T09:42:47;10.40;1.00
4054;DHT22;2042;47.956;9.222;2023-03-12T09:45:43;11.00;1.00
4054;DHT22;2042;47.956;9.222;2023-03-12T09:50:54;11.00;1.00
4054;DHT22;2042;47.956;9.222;2023-03-12T09:53:37;11.00;1.00
4054;DHT22;2042;47.956;9.222;2023-03-12T09:56:11;10.70;1.00
4054;DHT22;2042;47.956;9.222;2023-03-12T09:58:38;11.00;1.00
4054;DHT22;2042;47.956;9.222;2023-03-12T10:06:38;10.70;1.00
4054;DHT22;2042;47.956;9.222;2023-03-12T10:17:36;10.30;1.00
4054;DHT22;2042;47.956;9.222;2023-03-12T10:25:26;9.70;1.00
4054;DHT22;2042;47.956;9.222;2023-03-12T10:27:58;9.40;1.00
4054;DHT22;2042;47.956;9.222;2023-03-12T10:30:28;9.10;1.00
4054;DHT22;2042;47.956;9.222;2023-03-12T10:32:58;9.00;1.00
4054;DHT22;2042;47.956;9.222;2023-03-12T10:35:27;9.10;1.00
4054;DHT22;2042;47.956;9.222;2023-03-12T10:37:58;9.20;1.00
4054;DHT22;2042;47.956;9.222;2023-03-12T10:40:30;9.40;1.00
4054;DHT22;2042;47.956;9.222;2023-03-12T10:42:58;9.60;1.00
4054;DHT22;2042;47.956;9.222;2023-03-12T10:48:24;10.00;1.00
4054;DHT22;2042;47.956;9.222;2023-03-12T10:51:07;10.00;1.00
4054;DHT22;2042;47.956;9.222;2023-03-12T10:53:38;10.20;1.00
4054;DHT22;2042;47.956;9.222;2023-03-12T10:56:09;10.20;1.00
4054;DHT22;2042;47.956;9.222;2023-03-12T10:58:43;10.00;1.00
4054;DHT22;2042;47.956;9.222;2023-03-12T11:01:30;10.00;1.00
4054;DHT22;2042;47.956;9.222;2023-03-12T11:09:37;9.80;1.00
4054;DHT22;2042;47.956;9.222;2023-03-12T11:12:25;9.80;1.00
4054;DHT22;2042;47.956;9.222;2023-03-12T11:14:51;9.80;1.00
4054;DHT22;2042;47.956;9.222;2023-03-12T11:17:23;9.60;1.00
4054;DHT22;2042;47.956;9.222;2023-03-12T11:19:49;9.20;1.00
4054;DHT22;2042;47.956;9.222;2023-03-12T11:22:27;8.90;1.00
4054;DHT22;2042;47.956;9.222;2023-03-12T11:24:56;8.70;1.00
4054;DHT22;2042;47.956;9.222;2023-03-12T11:27:43;8.70;1.00
4054;DHT22;2042;47.956;9.222;2023-03-12T11:30:22;8.70;1.00
4054;DHT22;2042;47.956;9.222;2023-03-12T11:32:49;8.80;1.00
4054;DHT22;2042;47.956;9.222;2023-03-12T11:35:23;8.90;1.00
4054;DHT22;2042;47.956;9.222;2023-03-12T11:51:32;9.50;1.00
4054;DHT22;2042;47.956;9.222;2023-03-12T11:54:46;9.10;1.00
4054;DHT22;2042;47.956;9.222;2023-03-12T12:00:32;9.70;1.00
4054;DHT22;2042;47.956;9.222;2023-03-12T12:11:45;10.50;1.00
4054;DHT22;2042;47.956;9.222;2023-03-12T13:43:55;11.10;1.00
4054;DHT22;2042;47.956;9.222;2023-03-12T13:46:28;11.50;1.00
4054;DHT22;2042;47.956;9.222;2023-03-12T13:49:01;12.10;1.00
4054;DHT22;2042;47.956;9.222;2023-03-12T13:51:28;11.90;1.00
4054;DHT22;2042;47.956;9.222;2023-03-12T13:53:58;11.70;1.00
4054;DHT22;2042;47.956;9.222;2023-03-12T13:56:29;11.70;1.00
4054;DHT22;2042;47.956;9.222;2023-03-12T13:59:06;11.50;1.00
4054;DHT22;2042;47.956;9.222;2023-03-12T14:01:45;11.70;1.00
4054;DHT22;2042;47.956;9.222;2023-03-12T17:39:25;7.60;22.20
4054;DHT22;2042;47.956;9.222;2023-03-12T17:41:51;7.60;16.80
4054;DHT22;2042;47.956;9.222;2023-03-12T17:44:17;7.50;16.00
4054;DHT22;2042;47.956;9.222;2023-03-12T17:46:42;7.30;17.50
4054;DHT22;2042;47.956;9.222;2023-03-12T17:49:08;7.20;20.70
4054;DHT22;2042;47.956;9.222;2023-03-12T17:51:34;7.20;23.70
4054;DHT22;2042;47.956;9.222;2023-03-12T17:54:00;7.10;26.20
4054;DHT22;2042;47.956;9.222;2023-03-12T17:56:25;7.10;26.40
4054;DHT22;2042;47.956;9.222;2023-03-12T17:58:51;7.10;26.40
4054;DHT22;2042;47.956;9.222;2023-03-12T18:01:17;7.10;27.20
4054;DHT22;2042;47.956;9.222;2023-03-12T18:03:42;7.00;27.50
4054;DHT22;2042;47.956;9.222;2023-03-12T18:06:09;6.90;28.70
4054;DHT22;2042;47.956;9.222;2023-03-12T18:08:35;6.90;30.90
4054;DHT22;2042;47.956;9.222;2023-03-12T18:11:01;6.90;33.30
4054;DHT22;2042;47.956;9.222;2023-03-12T18:13:28;6.90;35.50
4054;DHT22;2042;47.956;9.222;2023-03-12T18:15:55;6.90;37.20
4054;DHT22;2042;47.956;9.222;2023-03-12T18:18:23;6.90;37.60
4054;DHT22;2042;47.956;9.222;2023-03-12T18:20:49;6.90;36.50
4054;DHT22;2042;47.956;9.222;2023-03-12T18:23:15;6.80;36.40
4054;DHT22;2042;47.956;9.222;2023-03-12T18:25:42;6.70;36.40
4054;DHT22;2042;47.956;9.222;2023-03-12T18:28:07;6.70;1.00
4054;DHT22;2042;47.956;9.222;2023-03-12T18:30:34;6.70;45.10
4054;DHT22;2042;47.956;9.222;2023-03-12T18:40:25;6.40;42.70
4054;DHT22;2042;47.956;9.222;2023-03-12T18:52:42;6.50;36.30
4054;DHT22;2042;47.956;9.222;2023-03-12T18:57:40;6.10;40.70
4054;DHT22;2042;47.956;9.222;2023-03-12T19:00:08;5.70;51.40
4054;DHT22;2042;47.956;9.222;2023-03-12T19:02:38;6.30;51.20
4054;DHT22;2042;47.956;9.222;2023-03-12T19:05:04;6.30;54.20
4054;DHT22;2042;47.956;9.222;2023-03-12T19:07:31;6.60;45.90
4054;DHT22;2042;47.956;9.222;2023-03-12T19:09:56;6.00;29.30
4054;DHT22;2042;47.956;9.222;2023-03-12T19:12:22;6.00;26.10
4054;DHT22;2042;47.956;9.222;2023-03-12T19:48:55;5.50;13.60
4054;DHT22;2042;47.956;9.222;2023-03-12T19:51:21;5.60;14.60
4054;DHT22;2042;47.956;9.222;2023-03-12T19:53:46;5.50;13.40
4054;DHT22;2042;47.956;9.222;2023-03-12T20:08:23;5.40;14.30
4054;DHT22;2042;47.956;9.222;2023-03-12T20:11:04;5.40;15.80
4054;DHT22;2042;47.956;9.222;2023-03-12T20:13:31;5.50;17.90
4054;DHT22;2042;47.956;9.222;2023-03-12T20:15:56;5.60;17.90
4054;DHT22;2042;47.956;9.222;2023-03-12T20:18:22;5.50;17.00
4054;DHT22;2042;47.956;9.222;2023-03-12T20:20:48;5.50;17.10
4054;DHT22;2042;47.956;9.222;2023-03-12T20:23:14;5.50;17.80
4054;DHT22;2042;47.956;9.222;2023-03-12T20:25:40;5.50;18.40
4054;DHT22;2042;47.956;9.222;2023-03-12T20:28:06;5.50;17.60
4054;DHT22;2042;47.956;9.222;2023-03-12T20:30:37;5.40;16.30
4054;DHT22;2042;47.956;9.222;2023-03-12T20:33:05;5.30;16.80
4054;DHT22;2042;47.956;9.222;2023-03-12T20:35:33;5.30;17.00
4054;DHT22;2042;47.956;9.222;2023-03-12T20:37:58;5.30;19.20
4054;DHT22;2042;47.956;9.222;2023-03-12T20:40:24;5.40;21.40
4054;DHT22;2042;47.956;9.222;2023-03-12T20:42:50;5.50;21.80
4054;DHT22;2042;47.956;9.222;2023-03-12T20:45:15;5.60;22.70
4054;DHT22;2042;47.956;9.222;2023-03-12T20:47:41;5.70;23.20
4054;DHT22;2042;47.956;9.222;2023-03-12T20:50:07;5.80;23.40
4054;DHT22;2042;47.956;9.222;2023-03-12T20:52:33;5.80;23.70
4054;DHT22;2042;47.956;9.222;2023-03-12T20:54:59;5.90;23.60
4054;DHT22;2042;47.956;9.222;2023-03-12T20:57:24;6.00;23.70
4054;DHT22;2042;47.956;9.222;2023-03-12T20:59:50;6.00;23.10
4054;DHT22;2042;47.956;9.222;2023-03-12T21:02:15;6.00;23.00
4054;DHT22;2042;47.956;9.222;2023-03-12T21:04:42;6.00;22.20
4054;DHT22;2042;47.956;9.222;2023-03-12T21:07:07;6.00;22.00
4054;DHT22;2042;47.956;9.222;2023-03-12T21:09:33;5.90;20.70
4054;DHT22;2042;47.956;9.222;2023-03-12T21:11:59;5.80;19.70
4054;DHT22;2042;47.956;9.222;2023-03-12T21:14:24;5.80;18.60
4054;DHT22;2042;47.956;9.222;2023-03-12T21:16:50;5.70;18.40
4054;DHT22;2042;47.956;9.222;2023-03-12T21:19:16;5.60;18.50
4054;DHT22;2042;47.956;9.222;2023-03-12T21:21:41;5.60;19.60
4054;DHT22;2042;47.956;9.222;2023-03-12T21:24:07;5.60;19.20
4054;DHT22;2042;47.956;9.222;2023-03-12T21:26:33;5.60;19.40
4054;DHT22;2042;47.956;9.222;2023-03-12T21:28:58;5.50;19.70
4054;DHT22;2042;47.956;9.222;2023-03-12T21:31:24;5.50;19.20
4054;DHT22;2042;47.956;9.222;2023-03-12T21:33:56;5.50;19.10
4054;DHT22;2042;47.956;9.222;2023-03-12T21:36:23;5.40;18.50
4054;DHT22;2042;47.956;9.222;2023-03-12T21:38:49;5.30;18.00
4054;DHT22;2042;47.956;9.222;2023-03-12T21:41:17;5.20;18.50
4054;DHT22;2042;47.956;9.222;2023-03-12T21:43:43;5.20;19.00
4054;DHT22;2042;47.956;9.222;2023-03-12T21:46:12;5.20;19.80
4054;DHT22;2042;47.956;9.222;2023-03-12T21:48:38;5.10;19.70
4054;DHT22;2042;47.956;9.222;2023-03-12T21:51:06;5.10;20.20
4054;DHT22;2042;47.956;9.222;2023-03-12T21:53:33;5.00;20.40
4054;DHT22;2042;47.956;9.222;2023-03-12T21:55:59;5.00;20.10
4054;DHT22;2042;47.956;9.222;2023-03-12T21:58:27;4.90;19.90
4054;DHT22;2042;47.956;9.222;2023-03-12T22:01:11;4.80;20.40
4054;DHT22;2042;47.956;9.222;2023-03-12T22:03:38;4.80;21.50
4054;DHT22;2042;47.956;9.222;2023-03-12T22:06:05;4.90;23.00
4054;DHT22;2042;47.956;9.222;2023-03-12T22:08:31;5.00;24.00
4054;DHT22;2042;47.956;9.222;2023-03-12T22:10:57;5.00;23.80
4054;DHT22;2042;47.956;9.222;2023-03-12T22:13:23;5.00;24.00
4054;DHT22;2042;47.956;9.222;2023-03-12T22:15:57;5.00;23.90
4054;DHT22;2042;47.956;9.222;2023-03-12T22:18:23;5.00;24.10
4054;DHT22;2042;47.956;9.222;2023-03-12T22:20:50;5.00;25.10
4054;DHT22;2042;47.956;9.222;2023-03-12T22:23:16;5.10;25.40
4054;DHT22;2042;47.956;9.222;2023-03-12T22:25:41;5.20;25.80
4054;DHT22;2042;47.956;9.222;2023-03-12T22:28:07;5.20;26.20
4054;DHT22;2042;47.956;9.222;2023-03-12T22:30:33;5.30;26.30
4054;DHT22;2042;47.956;9.222;2023-03-12T22:32:58;5.30;26.20
4054;DHT22;2042;47.956;9.222;2023-03-12T22:35:24;5.40;25.90
4054;DHT22;2042;47.956;9.222;2023-03-12T22:37:52;5.40;25.50
4054;DHT22;2042;47.956;9.222;2023-03-12T22:40:18;5.40;25.10
4054;DHT22;2042;47.956;9.222;2023-03-12T22:42:53;5.40;24.90
4054;DHT22;2042;47.956;9.222;2023-03-12T22:45:20;5.40;24.10
4054;DHT22;2042;47.956;9.222;2023-03-12T22:47:46;5.40;22.80
4054;DHT22;2042;47.956;9.222;2023-03-12T22:50:12;5.40;22.40
4054;DHT22;2042;47.956;9.222;2023-03-12T22:52:38;5.50;22.00
4054;DHT22;2042;47.956;9.222;2023-03-12T22:55:04;5.50;22.00
4054;DHT22;2042;47.956;9.222;2023-03-12T22:57:33;5.60;21.90
4054;DHT22;2042;47.956;9.222;2023-03-12T22:59:58;5.60;21.60
4054;DHT22;2042;47.956;9.222;2023-03-12T23:02:24;5.70;21.20
4054;DHT22;2042;47.956;9.222;2023-03-12T23:04:50;5.70;20.50
4054;DHT22;2042;47.956;9.222;2023-03-12T23:07:15;5.80;20.30
4054;DHT22;2042;47.956;9.222;2023-03-12T23:09:41;5.80;19.90
4054;DHT22;2042;47.956;9.222;2023-03-12T23:12:07;5.90;19.20
4054;DHT22;2042;47.956;9.222;2023-03-12T23:14:33;5.90;19.00
4054;DHT22;2042;47.956;9.222;2023-03-12T23:16:58;5.90;16.90
4054;DHT22;2042;47.956;9.222;2023-03-12T23:19:25;5.90;16.10
4054;DHT22;2042;47.956;9.222;2023-03-12T23:21:50;6.00;15.90
4054;DHT22;2042;47.956;9.222;2023-03-12T23:24:16;6.00;15.40
4054;DHT22;2042;47.956;9.222;2023-03-12T23:26:42;6.00;15.70
4054;DHT22;2042;47.956;9.222;2023-03-12T23:29:11;6.00;15.60
4054;DHT22;2042;47.956;9.222;2023-03-12T23:31:37;6.10;15.70
4054;DHT22;2042;47.956;9.222;2023-03-12T23:34:03;6.20;14.20
4054;DHT22;2042;47.956;9.222;2023-03-12T23:36:29;6.30;11.20
4054;DHT22;2042;47.956;9.222;2023-03-12T23:38:55;6.30;7.60
4054;DHT22;2042;47.956;9.222;2023-03-12T23:41:22;6.20;5.30
4054;DHT22;2042;47.956;9.222;2023-03-12T23:43:49;6.10;4.20
4054;DHT22;2042;47.956;9.222;2023-03-12T23:46:15;6.10;4.70
4054;DHT22;2042;47.956;9.222;2023-03-12T23:48:44;6.10;5.40
4054;DHT22;2042;47.956;9.222;2023-03-12T23:51:15;6.10;7.10
4054;DHT22;2042;47.956;9.222;2023-03-12T23:53:43;6.10;7.30
4054;DHT22;2042;47.956;9.222;2023-03-12T23:56:11;6.10;8.40
4054;DHT22;2042;47.956;9.222;2023-03-12T23:58:37;6.20;8.80
